Sunday, February 17, 2019, 9:04 PM GMT
Back to Local

CWIT, Saint Clothilde Automated Reporting Station

Location: , , Canada Lat: 45.167
Local Time: 9:04 PM GMT (21:04 GMT) Lon: -73.683
Time Zone: GMT Elev: 170 ft

Show me the last for .
Show Decoded

2019-02-17 20:00 METAR CWIT 172000Z AUTO 13003KT M10/M17 RMK AO1 SOG 41 5015 SLP216 T11011169 =
2019-02-17 19:00 METAR CWIT 171900Z AUTO 06004KT M10/M17 RMK AO1 SOG 41 8023 SLP210 T11011174 =
2019-02-17 18:00 METAR CWIT 171800Z AUTO 12004KT M10/M17 RMK AO1 SOG 41 8016 SLP220 T11031173 =
2019-02-17 17:00 METAR CWIT 171700Z AUTO 09003KT M10/M18 RMK AO1 SOG 41 8006 SLP230 T11031176 =
2019-02-17 16:00 METAR CWIT 171600Z AUTO 12004KT M11/M18 RMK AO1 SOG 41 8004 SLP233 T11121177 =
2019-02-17 15:00 METAR CWIT 171500Z AUTO 13003KT M12/M18 RMK AO1 SOG 41 1006 SLP237 T11171183 =
2019-02-17 14:00 METAR CWIT 171400Z AUTO 28002KT M13/M18 RMK AO1 SOG 41 0019 SLP236 T11321180 =
2019-02-17 13:00 METAR CWIT 171300Z AUTO 26002KT M19/M22 RMK AO1 SOG 40 3023 SLP238 T11931221 =
2019-02-17 12:00 METAR CWIT 171200Z AUTO 00000KT M20/M22 RMK AO1 SOG 41 3018 SLP231 T12021218 =
2019-02-17 11:00 METAR CWIT 171100Z AUTO 27003KT M19/M21 RMK AO1 SOG 41 1013 SLP218 T11851211 =
2019-02-17 10:00 METAR CWIT 171000Z AUTO 28002KT M19/M21 RMK AO1 SOG 41 1014 SLP215 T11861212 =
2019-02-17 09:00 METAR CWIT 170900Z AUTO 27002KT M16/M19 RMK AO1 SOG 41 3016 SLP212 T11641190 =
2019-02-17 08:00 METAR CWIT 170800Z AUTO 27004KT M14/M17 RMK AO1 SOG 41 1016 SLP204 T11371170 =
2019-02-17 07:00 METAR CWIT 170700Z AUTO 27003KT M13/M18 RMK AO1 SOG 41 1020 SLP200 T11251178 =
2019-02-17 06:00 METAR CWIT 170600Z AUTO 29005KT M12/M17 RMK AO1 SOG 41 3017 SLP196 T11171166 =
2019-02-17 05:00 METAR CWIT 170500Z AUTO 29004KT M11/M16 RMK AO1 SOG 41 3011 SLP188 T11121161 =
2019-02-17 04:00 METAR CWIT 170400Z AUTO 29005KT M10/M15 RMK AO1 SOG 41 1008 SLP180 T11041153 =
2019-02-17 03:00 METAR CWIT 170300Z AUTO 28004KT M10/M15 RMK AO1 SOG 41 1014 SLP179 T11021146 =
2019-02-17 02:00 METAR CWIT 170200Z AUTO 30004KT M08/M14 RMK AO1 SOG 41 1018 SLP176 T10841135 =
2019-02-17 01:00 METAR CWIT 170100Z AUTO 29004KT M08/M13 RMK AO1 SOG 41 1027 SLP171 T10751130 =
2019-02-17 00:00 METAR CWIT 170000Z AUTO 28005KT M07/M13 RMK AO1 SOG 41 1028 SLP164 T10701127 =
2019-02-16 23:00 METAR CWIT 162300Z AUTO 27006KT M06/M12 RMK AO1 SOG 41 3029 SLP158 T10591121 =
2019-02-16 22:00 METAR CWIT 162200Z AUTO 28007KT M05/M12 RMK AO1 SOG 41 1026 SLP144 T10521120 =

Support USWX by starting your Amazon purchase here.